createdAt,value
2023-05-14T00:00:23.038Z,11.20
2023-05-14T00:02:49.876Z,11.30
2023-05-14T00:05:16.478Z,11.20
2023-05-14T00:07:43.058Z,11.20
2023-05-14T00:10:10.143Z,11.20
2023-05-14T00:12:36.785Z,11.20
2023-05-14T00:15:03.431Z,11.20
2023-05-14T00:17:30.036Z,11.20
2023-05-14T00:19:56.654Z,11.20
2023-05-14T00:22:23.244Z,11.10
2023-05-14T00:24:49.815Z,11.20
2023-05-14T00:27:16.394Z,11.20
2023-05-14T00:29:42.939Z,11.10
2023-05-14T00:32:09.466Z,11.10
2023-05-14T00:34:36.036Z,11.10
2023-05-14T00:37:02.587Z,11.10
2023-05-14T00:39:29.191Z,11.10
2023-05-14T00:41:55.776Z,11.10
2023-05-14T00:44:22.343Z,11.00
2023-05-14T00:46:49.226Z,11.00
2023-05-14T00:49:16.340Z,11.00
2023-05-14T00:51:43.493Z,11.10
2023-05-14T00:54:10.849Z,11.00
2023-05-14T00:56:37.463Z,11.10
2023-05-14T00:59:04.092Z,11.00
2023-05-14T01:01:30.700Z,11.00
2023-05-14T01:03:58.332Z,11.00
2023-05-14T01:06:42.286Z,11.00
2023-05-14T01:09:24.010Z,11.00
2023-05-14T01:12:04.707Z,11.00
2023-05-14T01:14:54.170Z,11.00
2023-05-14T01:17:22.683Z,10.90
2023-05-14T01:19:50.937Z,10.90
2023-05-14T01:22:17.689Z,10.90
2023-05-14T01:24:44.265Z,10.90
2023-05-14T01:27:29.669Z,10.90
2023-05-14T01:30:19.065Z,11.00
2023-05-14T01:32:50.975Z,11.00
2023-05-14T01:35:18.705Z,11.00
2023-05-14T01:37:47.042Z,10.90
2023-05-14T01:40:13.645Z,10.90
2023-05-14T01:42:41.010Z,10.90
2023-05-14T01:45:08.568Z,10.90
2023-05-14T01:47:35.155Z,10.80
2023-05-14T01:50:01.725Z,10.80
2023-05-14T01:52:28.300Z,10.80
2023-05-14T01:54:54.866Z,10.90
2023-05-14T01:57:21.460Z,10.90
2023-05-14T01:59:47.998Z,10.90
2023-05-14T02:02:14.565Z,10.80
2023-05-14T02:04:41.128Z,10.80
2023-05-14T02:07:07.714Z,10.90
2023-05-14T02:09:34.295Z,10.80
2023-05-14T02:12:00.824Z,10.80
2023-05-14T02:14:27.368Z,10.80
2023-05-14T02:16:53.948Z,10.80
2023-05-14T02:19:20.491Z,10.80
2023-05-14T02:21:47.954Z,10.80
2023-05-14T02:24:14.526Z,10.80
2023-05-14T02:26:41.285Z,10.90
2023-05-14T02:29:08.344Z,11.00
2023-05-14T02:31:35.261Z,10.90
2023-05-14T02:34:02.536Z,10.90
2023-05-14T02:36:29.125Z,10.80
2023-05-14T02:38:55.672Z,10.90
2023-05-14T02:41:22.210Z,10.90
2023-05-14T02:43:48.748Z,10.80
2023-05-14T02:46:15.367Z,10.80
2023-05-14T02:48:42.052Z,10.80
2023-05-14T02:51:08.686Z,10.80
2023-05-14T02:53:35.324Z,10.80
2023-05-14T02:56:01.893Z,10.80
2023-05-14T02:58:28.686Z,10.80
2023-05-14T03:00:55.712Z,10.80
2023-05-14T03:03:22.987Z,10.80
2023-05-14T03:05:53.194Z,10.70
2023-05-14T03:08:19.759Z,10.70
2023-05-14T03:10:46.369Z,10.70
2023-05-14T03:13:13.046Z,10.60
2023-05-14T03:15:39.591Z,10.60
2023-05-14T03:18:06.194Z,10.60
2023-05-14T03:20:32.763Z,10.60
2023-05-14T03:22:59.419Z,10.60
2023-05-14T03:25:26.062Z,10.60
2023-05-14T03:27:52.610Z,10.60
2023-05-14T03:30:19.258Z,10.60
2023-05-14T03:32:45.966Z,10.60
2023-05-14T03:35:12.547Z,10.60
2023-05-14T03:37:39.126Z,10.60
2023-05-14T03:40:06.540Z,10.60
2023-05-14T03:42:33.089Z,10.60
2023-05-14T03:44:59.693Z,10.60
2023-05-14T03:47:26.284Z,10.60
2023-05-14T03:49:52.842Z,10.50
2023-05-14T03:52:19.392Z,10.50
2023-05-14T03:54:45.969Z,10.60
2023-05-14T03:57:12.528Z,10.60
2023-05-14T03:59:39.071Z,10.50
2023-05-14T04:02:05.643Z,10.50
2023-05-14T04:04:32.207Z,10.60
2023-05-14T04:06:58.865Z,10.50
2023-05-14T04:09:25.403Z,10.50
2023-05-14T04:11:51.987Z,10.60
2023-05-14T04:14:18.567Z,10.50
2023-05-14T04:16:45.234Z,10.50
2023-05-14T04:19:11.974Z,10.60
2023-05-14T04:21:38.647Z,10.50
2023-05-14T04:24:05.520Z,10.50
2023-05-14T04:26:32.110Z,10.50
2023-05-14T04:28:58.674Z,10.50
2023-05-14T04:31:25.222Z,10.50
2023-05-14T04:33:51.793Z,10.60
2023-05-14T04:36:18.383Z,10.60
2023-05-14T04:38:44.996Z,10.60
2023-05-14T04:41:11.619Z,10.60
2023-05-14T04:43:38.214Z,10.60
2023-05-14T04:46:04.850Z,10.50
2023-05-14T04:48:31.465Z,10.50
2023-05-14T04:50:58.031Z,10.60
2023-05-14T04:53:24.588Z,10.60
2023-05-14T04:55:51.139Z,10.60
2023-05-14T04:58:17.712Z,10.60
2023-05-14T05:00:44.707Z,10.60
2023-05-14T05:03:11.339Z,10.60
2023-05-14T05:05:37.969Z,10.60
2023-05-14T05:08:04.692Z,10.60
2023-05-14T05:10:31.248Z,10.60
2023-05-14T05:12:57.800Z,10.60
2023-05-14T05:15:26.404Z,10.60
2023-05-14T05:17:53.471Z,10.60
2023-05-14T05:20:20.116Z,10.60
2023-05-14T05:22:46.651Z,10.60
2023-05-14T05:25:13.246Z,10.70
2023-05-14T05:27:39.890Z,10.60
2023-05-14T05:30:07.216Z,10.70
2023-05-14T05:32:34.169Z,10.60
2023-05-14T05:35:00.811Z,10.70
2023-05-14T05:37:27.391Z,10.70
2023-05-14T05:39:53.902Z,10.70
2023-05-14T05:42:20.467Z,10.50
2023-05-14T05:44:47.027Z,10.50
2023-05-14T05:47:13.604Z,10.60
2023-05-14T05:49:40.437Z,10.50
2023-05-14T05:52:07.133Z,10.60
2023-05-14T05:54:34.126Z,10.50
2023-05-14T05:57:00.718Z,10.50
2023-05-14T05:59:27.313Z,10.50
2023-05-14T06:01:54.006Z,10.50
2023-05-14T06:04:20.613Z,10.50
2023-05-14T06:06:47.157Z,10.50
2023-05-14T06:09:13.721Z,10.60
2023-05-14T06:11:40.271Z,10.60
2023-05-14T06:14:06.838Z,10.60
2023-05-14T06:16:33.485Z,10.50
2023-05-14T06:19:00.258Z,10.60
2023-05-14T06:21:26.851Z,10.70
2023-05-14T06:23:53.396Z,10.70
2023-05-14T06:26:19.979Z,10.60
2023-05-14T06:28:46.641Z,10.70
2023-05-14T06:31:13.198Z,10.70
2023-05-14T06:33:39.779Z,10.80
2023-05-14T06:36:06.910Z,10.90
2023-05-14T06:38:33.512Z,10.90
2023-05-14T06:41:00.127Z,10.80
2023-05-14T06:43:26.689Z,10.80
2023-05-14T06:45:53.520Z,10.70
2023-05-14T06:48:20.724Z,10.80
2023-05-14T06:50:48.452Z,10.80
2023-05-14T06:53:15.274Z,10.70
2023-05-14T06:55:41.924Z,10.80
2023-05-14T06:58:08.667Z,10.80
2023-05-14T07:00:35.261Z,10.80
2023-05-14T07:03:01.956Z,10.80
2023-05-14T07:05:28.694Z,10.70
2023-05-14T07:07:55.280Z,10.70
2023-05-14T07:10:22.179Z,10.70
2023-05-14T07:12:49.189Z,10.80
2023-05-14T07:15:15.835Z,10.80
2023-05-14T07:17:42.400Z,10.80
2023-05-14T07:20:09.783Z,10.70
2023-05-14T07:22:36.362Z,10.90
2023-05-14T07:25:03.070Z,10.90
2023-05-14T07:27:29.722Z,10.90
2023-05-14T07:29:56.260Z,10.90
2023-05-14T07:32:22.841Z,10.90
2023-05-14T07:34:49.430Z,10.90
2023-05-14T07:37:16.018Z,11.00
2023-05-14T07:39:42.631Z,10.90
2023-05-14T07:42:09.200Z,11.00
2023-05-14T07:44:35.760Z,11.00
2023-05-14T07:47:02.350Z,10.90
2023-05-14T07:49:28.931Z,11.00
2023-05-14T07:51:55.487Z,11.00
2023-05-14T07:54:22.077Z,11.00
2023-05-14T07:56:48.621Z,11.00
2023-05-14T07:59:15.182Z,11.10
2023-05-14T08:01:41.867Z,11.10
2023-05-14T08:04:08.601Z,11.10
2023-05-14T08:06:35.202Z,11.20
2023-05-14T08:09:01.744Z,11.30
2023-05-14T08:11:28.334Z,11.40
2023-05-14T08:13:54.990Z,11.40
2023-05-14T08:16:22.361Z,11.50
2023-05-14T08:18:49.191Z,11.50
2023-05-14T08:21:15.764Z,11.60
2023-05-14T08:23:42.378Z,11.80
2023-05-14T08:26:09.065Z,11.80
2023-05-14T08:28:35.590Z,11.60
2023-05-14T08:31:02.222Z,11.60
2023-05-14T08:33:28.922Z,11.70
2023-05-14T08:35:55.476Z,11.80
2023-05-14T08:38:22.087Z,11.80
2023-05-14T08:40:56.980Z,11.80
2023-05-14T08:43:27.105Z,11.70
2023-05-14T08:46:00.561Z,11.70
2023-05-14T08:48:31.604Z,11.60
2023-05-14T08:50:59.411Z,11.60
2023-05-14T08:53:26.291Z,11.80
2023-05-14T08:55:54.025Z,11.70
2023-05-14T08:58:20.595Z,11.80
2023-05-14T09:00:47.482Z,11.80
2023-05-14T09:03:14.886Z,11.80
2023-05-14T09:05:41.684Z,11.80
2023-05-14T09:08:08.325Z,11.90
2023-05-14T09:10:34.904Z,11.90
2023-05-14T09:13:01.572Z,11.90
2023-05-14T09:15:30.875Z,11.90
2023-05-14T09:17:58.007Z,11.90
2023-05-14T09:20:25.282Z,12.00
2023-05-14T09:22:55.000Z,12.20
2023-05-14T09:25:26.985Z,12.30
2023-05-14T09:27:53.757Z,12.40
2023-05-14T09:30:20.453Z,12.40
2023-05-14T09:32:47.028Z,12.40
2023-05-14T09:35:22.117Z,12.30
2023-05-14T09:37:50.958Z,12.40
2023-05-14T09:40:19.532Z,12.40
2023-05-14T09:42:46.392Z,12.40
2023-05-14T09:45:12.939Z,12.30
2023-05-14T09:47:39.864Z,12.20
2023-05-14T09:50:07.366Z,12.30
2023-05-14T09:52:34.369Z,12.30
2023-05-14T09:55:01.129Z,12.30
2023-05-14T09:57:27.936Z,12.30
2023-05-14T09:59:54.546Z,12.30
2023-05-14T10:02:29.968Z,12.30
2023-05-14T10:05:00.699Z,12.40
2023-05-14T10:07:33.424Z,12.40
2023-05-14T10:10:02.934Z,12.40
2023-05-14T10:12:38.164Z,12.40
2023-05-14T10:15:12.172Z,12.40
2023-05-14T10:17:42.865Z,12.40
2023-05-14T10:20:12.633Z,12.40
2023-05-14T10:22:39.489Z,12.40
2023-05-14T10:25:06.706Z,12.50
2023-05-14T10:27:33.605Z,12.60
2023-05-14T10:30:00.232Z,12.70
2023-05-14T10:32:27.447Z,12.70
2023-05-14T10:34:54.102Z,12.80
2023-05-14T10:37:24.677Z,12.90
2023-05-14T10:39:53.247Z,13.10
2023-05-14T10:42:23.853Z,13.20
2023-05-14T10:45:11.494Z,13.20
2023-05-14T10:47:40.188Z,13.20
2023-05-14T10:50:08.748Z,13.30
2023-05-14T10:52:35.586Z,13.50
2023-05-14T10:55:04.132Z,13.50
2023-05-14T10:57:32.347Z,13.60
2023-05-14T11:00:00.704Z,13.80
2023-05-14T11:02:34.892Z,13.70
2023-05-14T11:05:04.656Z,13.90
2023-05-14T11:07:35.187Z,13.90
2023-05-14T11:10:10.726Z,14.00
2023-05-14T11:12:39.541Z,14.00
2023-05-14T11:15:14.773Z,14.00
2023-05-14T11:17:42.880Z,14.00
2023-05-14T11:20:10.504Z,14.10
2023-05-14T11:22:38.988Z,14.10
2023-05-14T11:25:06.888Z,14.20
2023-05-14T11:27:41.861Z,14.10
2023-05-14T11:30:19.687Z,14.00
2023-05-14T11:32:47.893Z,14.10
2023-05-14T11:35:15.302Z,14.10
2023-05-14T11:37:42.581Z,14.00
2023-05-14T11:40:14.580Z,14.00
2023-05-14T11:42:41.216Z,13.90
2023-05-14T11:45:11.281Z,14.10
2023-05-14T11:47:37.968Z,14.00
2023-05-14T11:50:04.960Z,14.10
2023-05-14T11:52:38.079Z,14.20
2023-05-14T11:55:05.078Z,14.20
2023-05-14T11:57:31.739Z,14.30
2023-05-14T11:59:58.333Z,14.40
2023-05-14T12:02:27.098Z,14.30
2023-05-14T12:04:53.948Z,14.30
2023-05-14T12:07:21.009Z,14.40
2023-05-14T12:09:48.987Z,14.40
2023-05-14T12:12:21.252Z,14.40
2023-05-14T12:14:48.759Z,14.40
2023-05-14T12:17:18.311Z,14.40
2023-05-14T12:19:46.475Z,14.40
2023-05-14T12:22:15.792Z,14.40
2023-05-14T12:24:43.861Z,14.60
2023-05-14T12:27:10.818Z,15.00
2023-05-14T12:29:38.355Z,15.20
2023-05-14T12:32:09.308Z,15.20
2023-05-14T12:34:37.561Z,15.20
2023-05-14T12:37:05.300Z,15.50
2023-05-14T12:39:34.131Z,15.60
2023-05-14T12:42:01.042Z,15.50
2023-05-14T12:44:28.051Z,15.50
2023-05-14T12:46:54.859Z,15.20
2023-05-14T12:49:21.460Z,15.30
2023-05-14T12:51:48.021Z,15.30
2023-05-14T12:54:14.594Z,15.40
2023-05-14T12:56:41.464Z,15.40
2023-05-14T12:59:08.029Z,15.50
2023-05-14T13:01:34.812Z,15.40
2023-05-14T13:04:01.464Z,15.30
2023-05-14T13:06:28.053Z,15.30
2023-05-14T13:08:54.623Z,15.50
2023-05-14T13:11:21.231Z,15.50
2023-05-14T13:13:47.786Z,15.50
2023-05-14T13:16:14.380Z,15.60
2023-05-14T13:18:40.999Z,15.70
2023-05-14T13:21:07.575Z,15.60
2023-05-14T13:23:34.139Z,15.60
2023-05-14T13:26:00.722Z,15.40
2023-05-14T13:28:27.290Z,15.40
2023-05-14T13:31:08.765Z,15.40
2023-05-14T13:33:41.596Z,15.70
2023-05-14T13:36:08.690Z,16.00
2023-05-14T13:38:35.906Z,16.00
2023-05-14T13:41:02.696Z,16.30
2023-05-14T13:43:34.335Z,16.30
2023-05-14T13:46:01.322Z,16.50
2023-05-14T13:48:28.148Z,16.50
2023-05-14T13:50:54.874Z,16.60
2023-05-14T13:53:23.183Z,16.60
2023-05-14T13:55:50.452Z,16.80
2023-05-14T13:58:17.105Z,16.80
2023-05-14T14:00:43.681Z,16.80
2023-05-14T14:03:10.343Z,16.80
2023-05-14T14:05:37.097Z,16.90
2023-05-14T14:08:13.117Z,17.00
2023-05-14T14:10:49.711Z,16.90
2023-05-14T14:13:16.346Z,17.10
2023-05-14T14:15:42.979Z,17.20
2023-05-14T14:18:09.533Z,17.20
2023-05-14T14:20:36.127Z,17.00
2023-05-14T14:23:02.660Z,17.00
2023-05-14T14:25:29.233Z,17.10
2023-05-14T14:27:55.822Z,17.00
2023-05-14T14:30:22.402Z,17.10
2023-05-14T14:32:49.523Z,17.20
2023-05-14T14:35:17.394Z,17.20
2023-05-14T14:37:44.168Z,17.30
2023-05-14T14:40:11.389Z,17.20
2023-05-14T14:42:38.586Z,17.10
2023-05-14T14:45:05.911Z,17.10
2023-05-14T14:47:32.886Z,17.00
2023-05-14T14:49:59.735Z,17.20
2023-05-14T14:52:27.282Z,17.20
2023-05-14T14:54:54.904Z,17.10
2023-05-14T14:57:21.526Z,17.10
2023-05-14T14:59:48.540Z,17.20
2023-05-14T15:02:15.278Z,17.20
2023-05-14T15:04:41.924Z,17.40
2023-05-14T15:07:08.567Z,17.20
2023-05-14T15:09:35.142Z,16.90
2023-05-14T15:12:01.893Z,17.00
2023-05-14T15:14:28.498Z,17.00
2023-05-14T15:16:55.099Z,17.00
2023-05-14T15:19:21.784Z,17.20
2023-05-14T15:21:48.384Z,17.30
2023-05-14T15:24:14.913Z,17.40
2023-05-14T15:26:41.720Z,17.60
2023-05-14T15:29:08.330Z,17.50
2023-05-14T15:31:35.047Z,17.30
2023-05-14T15:34:01.655Z,17.20
2023-05-14T15:36:28.211Z,17.20
2023-05-14T15:38:54.833Z,17.20
2023-05-14T15:41:21.466Z,17.20
2023-05-14T15:43:48.074Z,17.10
2023-05-14T15:46:14.722Z,16.90
2023-05-14T15:48:41.288Z,16.90
2023-05-14T15:51:08.002Z,17.00
2023-05-14T15:53:34.643Z,16.80
2023-05-14T15:56:01.256Z,16.40
2023-05-14T15:58:27.811Z,15.80
2023-05-14T16:00:54.331Z,15.60
2023-05-14T16:03:21.089Z,15.50
2023-05-14T16:05:47.719Z,15.30
2023-05-14T16:08:14.327Z,15.10
2023-05-14T16:10:40.908Z,15.00
2023-05-14T16:13:07.504Z,15.10
2023-05-14T16:15:34.098Z,15.20
2023-05-14T16:18:00.959Z,15.20
2023-05-14T16:20:27.543Z,15.20
2023-05-14T16:22:54.092Z,15.20
2023-05-14T16:25:20.705Z,15.20
2023-05-14T16:27:47.351Z,15.10
2023-05-14T16:30:14.005Z,15.00
2023-05-14T16:32:40.586Z,14.80
2023-05-14T16:35:07.485Z,14.30
2023-05-14T16:37:34.327Z,14.10
2023-05-14T16:40:00.928Z,13.80
2023-05-14T16:42:27.496Z,13.70
2023-05-14T16:44:54.069Z,13.50
2023-05-14T16:47:20.666Z,13.40
2023-05-14T16:49:47.178Z,13.30
2023-05-14T16:52:13.726Z,13.30
2023-05-14T16:54:40.332Z,13.10
2023-05-14T16:57:06.924Z,13.00
2023-05-14T16:59:33.582Z,12.90
2023-05-14T17:02:00.312Z,12.90
2023-05-14T17:04:27.193Z,12.80
2023-05-14T17:06:54.750Z,12.80
2023-05-14T17:09:21.360Z,12.70
2023-05-14T17:11:47.899Z,12.70
2023-05-14T17:14:14.842Z,12.50
2023-05-14T17:16:41.533Z,12.30
2023-05-14T17:19:08.264Z,12.30
2023-05-14T17:21:34.891Z,12.20
2023-05-14T17:24:01.503Z,12.10
2023-05-14T17:26:28.055Z,12.10
2023-05-14T17:28:54.601Z,12.10
2023-05-14T17:31:21.215Z,12.10
2023-05-14T17:33:47.825Z,12.00
2023-05-14T17:36:14.507Z,12.00
2023-05-14T17:38:41.089Z,12.00
2023-05-14T17:41:07.675Z,12.00
2023-05-14T17:43:34.244Z,12.00
2023-05-14T17:46:00.871Z,12.00
2023-05-14T17:48:27.447Z,12.00
2023-05-14T17:50:54.695Z,12.00
2023-05-14T17:53:21.423Z,12.10
2023-05-14T17:55:48.575Z,12.10
2023-05-14T17:58:15.162Z,12.00
2023-05-14T18:00:42.447Z,12.00
2023-05-14T18:03:09.186Z,12.10
2023-05-14T18:05:35.960Z,12.00
2023-05-14T18:08:02.731Z,12.10
2023-05-14T18:10:29.393Z,12.10
2023-05-14T18:12:55.989Z,12.10
2023-05-14T18:15:23.000Z,12.20
2023-05-14T18:17:49.782Z,12.20
2023-05-14T18:20:16.386Z,12.20
2023-05-14T18:22:42.965Z,12.30
2023-05-14T18:25:09.741Z,12.40
2023-05-14T18:27:36.457Z,12.30
2023-05-14T18:30:03.329Z,12.20
2023-05-14T18:32:29.924Z,12.10
2023-05-14T18:34:56.478Z,12.10
2023-05-14T18:37:23.356Z,12.10
2023-05-14T18:39:49.901Z,12.10
2023-05-14T18:42:16.469Z,12.10
2023-05-14T18:44:43.053Z,12.00
2023-05-14T18:47:09.845Z,12.00
2023-05-14T18:49:36.386Z,12.00
2023-05-14T18:52:02.950Z,12.00
2023-05-14T18:54:29.549Z,12.00
2023-05-14T18:56:56.461Z,11.90
2023-05-14T18:59:23.044Z,11.90
2023-05-14T19:01:49.667Z,11.90
2023-05-14T19:04:16.271Z,11.90
2023-05-14T19:06:42.903Z,11.90
2023-05-14T19:09:09.662Z,11.90
2023-05-14T19:11:36.421Z,11.90
2023-05-14T19:14:02.994Z,11.80
2023-05-14T19:16:29.752Z,11.80
2023-05-14T19:18:56.531Z,11.80
2023-05-14T19:21:23.121Z,11.70
2023-05-14T19:23:49.662Z,11.70
2023-05-14T19:26:16.300Z,11.70
2023-05-14T19:28:42.954Z,11.70
2023-05-14T19:31:09.562Z,11.80
2023-05-14T19:33:36.130Z,11.70
2023-05-14T19:36:02.851Z,11.70
2023-05-14T19:38:29.417Z,11.70
2023-05-14T19:40:56.025Z,11.70
2023-05-14T19:43:26.375Z,11.70
2023-05-14T19:45:52.924Z,11.70
2023-05-14T19:48:19.521Z,11.70
2023-05-14T19:50:46.621Z,11.70
2023-05-14T19:53:14.028Z,11.60
2023-05-14T19:55:40.622Z,11.60
2023-05-14T19:58:07.286Z,11.70
2023-05-14T20:00:33.856Z,11.70
2023-05-14T20:03:00.529Z,11.70
2023-05-14T20:05:27.131Z,11.60
2023-05-14T20:07:53.708Z,11.70
2023-05-14T20:10:20.872Z,11.60
2023-05-14T20:12:47.450Z,11.60
2023-05-14T20:15:14.107Z,11.50
2023-05-14T20:17:40.729Z,11.40
2023-05-14T20:20:07.787Z,11.40
2023-05-14T20:22:34.355Z,11.30
2023-05-14T20:25:00.931Z,11.30
2023-05-14T20:27:27.614Z,11.30
2023-05-14T20:29:54.175Z,11.30
2023-05-14T20:32:20.726Z,11.30
2023-05-14T20:34:47.278Z,11.30
2023-05-14T20:37:13.814Z,11.20
2023-05-14T20:39:40.374Z,11.20
2023-05-14T20:42:07.373Z,11.10
2023-05-14T20:44:33.944Z,11.10
2023-05-14T20:47:00.542Z,11.10
2023-05-14T20:49:27.730Z,11.00
2023-05-14T20:51:54.276Z,11.00
2023-05-14T20:54:20.849Z,11.00
2023-05-14T20:56:47.485Z,10.90
2023-05-14T20:59:14.036Z,10.90
2023-05-14T21:01:40.626Z,10.80
2023-05-14T21:04:07.404Z,10.80
2023-05-14T21:06:34.164Z,10.80
2023-05-14T21:09:00.709Z,10.70
2023-05-14T21:11:27.255Z,10.80
2023-05-14T21:13:53.807Z,10.70
2023-05-14T21:16:20.430Z,10.70
2023-05-14T21:18:47.023Z,10.70
2023-05-14T21:21:13.823Z,10.60
2023-05-14T21:23:40.387Z,10.60
2023-05-14T21:26:06.987Z,10.60
2023-05-14T21:28:33.632Z,10.60
2023-05-14T21:31:00.217Z,10.60
2023-05-14T21:33:26.778Z,10.60
2023-05-14T21:35:53.438Z,10.60
2023-05-14T21:38:20.504Z,10.60
2023-05-14T21:40:47.094Z,10.60
2023-05-14T21:43:13.654Z,10.60
2023-05-14T21:45:40.247Z,10.60
2023-05-14T21:48:06.954Z,10.60
2023-05-14T21:50:33.621Z,10.60
2023-05-14T21:53:00.173Z,10.50
2023-05-14T21:55:28.957Z,10.50
2023-05-14T21:57:55.569Z,10.50
2023-05-14T22:00:22.099Z,10.60
2023-05-14T22:02:49.783Z,10.60
2023-05-14T22:05:16.453Z,10.60
2023-05-14T22:07:42.996Z,10.70
2023-05-14T22:10:10.093Z,10.70
2023-05-14T22:12:36.638Z,10.70
2023-05-14T22:15:04.159Z,10.60
2023-05-14T22:17:30.730Z,10.60
2023-05-14T22:19:57.273Z,10.60
2023-05-14T22:22:23.802Z,10.60
2023-05-14T22:24:50.376Z,10.50
2023-05-14T22:27:17.597Z,10.50
2023-05-14T22:29:44.234Z,10.40
2023-05-14T22:32:10.817Z,10.40
2023-05-14T22:34:37.513Z,10.30
2023-05-14T22:37:04.757Z,10.30
2023-05-14T22:39:31.374Z,10.30
2023-05-14T22:41:58.056Z,10.40
2023-05-14T22:44:24.624Z,10.40
2023-05-14T22:46:51.274Z,10.40
2023-05-14T22:49:17.868Z,10.50
2023-05-14T22:51:44.410Z,10.50
2023-05-14T22:54:11.073Z,10.50
2023-05-14T22:56:38.393Z,10.50
2023-05-14T22:59:04.955Z,10.60
2023-05-14T23:01:32.408Z,10.60
2023-05-14T23:03:59.048Z,10.60
2023-05-14T23:06:25.719Z,10.50
2023-05-14T23:08:52.285Z,10.40
2023-05-14T23:11:18.859Z,10.40
2023-05-14T23:13:45.428Z,10.40
2023-05-14T23:16:12.013Z,10.40
2023-05-14T23:18:38.688Z,10.40
2023-05-14T23:21:05.492Z,10.40
2023-05-14T23:23:32.093Z,10.40
2023-05-14T23:25:58.702Z,10.40
2023-05-14T23:28:25.360Z,10.40
2023-05-14T23:30:51.917Z,10.40
2023-05-14T23:33:18.478Z,10.30
2023-05-14T23:35:45.180Z,10.30
2023-05-14T23:38:11.943Z,10.40
2023-05-14T23:40:38.511Z,10.30
2023-05-14T23:43:05.066Z,10.30
2023-05-14T23:45:31.773Z,10.20
2023-05-14T23:47:59.294Z,10.20
2023-05-14T23:50:25.908Z,10.20
2023-05-14T23:52:53.890Z,10.20
2023-05-14T23:55:20.908Z,10.20
2023-05-14T23:57:48.249Z,10.20
